Terminal Aerodrome Forecast
Issued by NWS

Home | Current Version | Previous Version | Text Only | Print | Product List | Glossary On
Versions: 1 2 3 4 5 6 7 8 9 10 11 12 13 14 15 16 17 18
000
FTUS46 KEKA 241124
TAFUKI
TAF
KUKI 241124Z 2412/2512 00000KT P6SM SCT050 BKN200
     FM241500 VRB03KT P6SM OVC045
     FM241800 31005KT P6SM -SHRA OVC030
     FM250000 31008KT P6SM SCT030=

USA.gov is the U.S. government's official web portal to all federal, state and local government web resources and services.